sensor_id;sensor_type;location;lat;lon;timestamp;P1;durP1;ratioP1;P2;durP2;ratioP2
20014;SDS011;61787;42.022;23.078;2023-03-18T00:00:58;14.87;;;6.23;;
20014;SDS011;61787;42.022;23.078;2023-03-18T00:02:04;16.03;;;6.73;;
20014;SDS011;61787;42.022;23.078;2023-03-18T00:03:06;16.00;;;6.67;;
20014;SDS011;61787;42.022;23.078;2023-03-18T00:04:07;11.73;;;6.23;;
20014;SDS011;61787;42.022;23.078;2023-03-18T00:05:10;14.07;;;6.57;;
20014;SDS011;61787;42.022;23.078;2023-03-18T00:06:14;14.97;;;6.67;;
20014;SDS011;61787;42.022;23.078;2023-03-18T00:07:18;14.33;;;6.57;;
20014;SDS011;61787;42.022;23.078;2023-03-18T00:08:20;17.87;;;6.97;;
20014;SDS011;61787;42.022;23.078;2023-03-18T00:09:22;14.40;;;6.60;;
20014;SDS011;61787;42.022;23.078;2023-03-18T00:10:24;17.27;;;6.40;;
20014;SDS011;61787;42.022;23.078;2023-03-18T00:11:25;16.07;;;6.30;;
20014;SDS011;61787;42.022;23.078;2023-03-18T00:12:27;19.20;;;6.50;;
20014;SDS011;61787;42.022;23.078;2023-03-18T00:13:28;20.50;;;6.80;;
20014;SDS011;61787;42.022;23.078;2023-03-18T00:14:30;16.90;;;6.40;;
20014;SDS011;61787;42.022;23.078;2023-03-18T00:15:33;10.60;;;5.80;;
20014;SDS011;61787;42.022;23.078;2023-03-18T00:16:34;15.33;;;5.90;;
20014;SDS011;61787;42.022;23.078;2023-03-18T00:17:37;17.37;;;6.27;;
20014;SDS011;61787;42.022;23.078;2023-03-18T00:18:40;13.47;;;6.30;;
20014;SDS011;61787;42.022;23.078;2023-03-18T00:19:42;14.33;;;6.03;;
20014;SDS011;61787;42.022;23.078;2023-03-18T00:20:44;12.40;;;6.20;;
20014;SDS011;61787;42.022;23.078;2023-03-18T00:21:46;13.63;;;6.23;;
20014;SDS011;61787;42.022;23.078;2023-03-18T00:22:47;13.00;;;6.63;;
20014;SDS011;61787;42.022;23.078;2023-03-18T00:23:49;15.20;;;6.40;;
20014;SDS011;61787;42.022;23.078;2023-03-18T00:24:56;17.50;;;6.60;;
20014;SDS011;61787;42.022;23.078;2023-03-18T00:25:58;13.30;;;6.73;;
20014;SDS011;61787;42.022;23.078;2023-03-18T00:27:01;11.43;;;6.03;;
20014;SDS011;61787;42.022;23.078;2023-03-18T00:28:04;12.43;;;6.43;;
20014;SDS011;61787;42.022;23.078;2023-03-18T00:29:07;12.57;;;6.33;;
20014;SDS011;61787;42.022;23.078;2023-03-18T00:30:09;15.13;;;6.50;;
20014;SDS011;61787;42.022;23.078;2023-03-18T00:31:12;12.57;;;6.27;;
20014;SDS011;61787;42.022;23.078;2023-03-18T00:32:14;17.67;;;6.60;;
20014;SDS011;61787;42.022;23.078;2023-03-18T00:33:16;20.27;;;7.23;;
20014;SDS011;61787;42.022;23.078;2023-03-18T00:34:19;18.27;;;7.47;;
20014;SDS011;61787;42.022;23.078;2023-03-18T00:35:21;13.60;;;6.60;;
20014;SDS011;61787;42.022;23.078;2023-03-18T00:36:24;15.77;;;7.10;;
20014;SDS011;61787;42.022;23.078;2023-03-18T00:37:28;12.23;;;6.63;;
20014;SDS011;61787;42.022;23.078;2023-03-18T00:38:31;15.47;;;7.00;;
20014;SDS011;61787;42.022;23.078;2023-03-18T00:39:33;15.13;;;7.17;;
20014;SDS011;61787;42.022;23.078;2023-03-18T00:40:35;17.57;;;8.07;;
20014;SDS011;61787;42.022;23.078;2023-03-18T00:41:43;12.63;;;6.90;;
20014;SDS011;61787;42.022;23.078;2023-03-18T00:42:45;11.63;;;6.83;;
20014;SDS011;61787;42.022;23.078;2023-03-18T00:43:57;13.63;;;6.73;;
20014;SDS011;61787;42.022;23.078;2023-03-18T00:44:59;13.87;;;6.70;;
20014;SDS011;61787;42.022;23.078;2023-03-18T00:46:01;9.93;;;6.07;;
20014;SDS011;61787;42.022;23.078;2023-03-18T00:47:03;10.50;;;6.43;;
20014;SDS011;61787;42.022;23.078;2023-03-18T00:48:06;15.33;;;7.03;;
20014;SDS011;61787;42.022;23.078;2023-03-18T00:49:08;13.00;;;6.03;;
20014;SDS011;61787;42.022;23.078;2023-03-18T00:50:10;11.13;;;6.43;;
20014;SDS011;61787;42.022;23.078;2023-03-18T00:51:13;13.17;;;6.60;;
20014;SDS011;61787;42.022;23.078;2023-03-18T00:52:17;9.80;;;6.40;;
20014;SDS011;61787;42.022;23.078;2023-03-18T00:53:19;13.70;;;5.83;;
20014;SDS011;61787;42.022;23.078;2023-03-18T00:54:21;12.93;;;6.07;;
20014;SDS011;61787;42.022;23.078;2023-03-18T00:55:25;13.23;;;6.43;;
20014;SDS011;61787;42.022;23.078;2023-03-18T00:56:28;9.83;;;6.10;;
20014;SDS011;61787;42.022;23.078;2023-03-18T00:57:32;10.80;;;6.37;;
20014;SDS011;61787;42.022;23.078;2023-03-18T00:58:34;10.27;;;6.17;;
20014;SDS011;61787;42.022;23.078;2023-03-18T00:59:37;11.47;;;6.73;;
20014;SDS011;61787;42.022;23.078;2023-03-18T01:00:38;11.03;;;6.63;;
20014;SDS011;61787;42.022;23.078;2023-03-18T01:01:41;12.67;;;6.60;;
20014;SDS011;61787;42.022;23.078;2023-03-18T01:02:43;11.90;;;6.53;;
20014;SDS011;61787;42.022;23.078;2023-03-18T01:03:45;9.23;;;6.63;;
20014;SDS011;61787;42.022;23.078;2023-03-18T01:04:48;10.47;;;6.57;;
20014;SDS011;61787;42.022;23.078;2023-03-18T01:05:51;12.50;;;6.97;;
20014;SDS011;61787;42.022;23.078;2023-03-18T01:06:53;9.90;;;6.57;;
20014;SDS011;61787;42.022;23.078;2023-03-18T01:07:55;12.90;;;7.07;;
20014;SDS011;61787;42.022;23.078;2023-03-18T01:08:58;12.33;;;6.97;;
20014;SDS011;61787;42.022;23.078;2023-03-18T01:10:01;13.90;;;7.03;;
20014;SDS011;61787;42.022;23.078;2023-03-18T01:11:03;13.40;;;7.43;;
20014;SDS011;61787;42.022;23.078;2023-03-18T01:12:06;11.73;;;6.70;;
20014;SDS011;61787;42.022;23.078;2023-03-18T01:13:09;12.73;;;7.37;;
20014;SDS011;61787;42.022;23.078;2023-03-18T01:14:10;9.93;;;6.60;;
20014;SDS011;61787;42.022;23.078;2023-03-18T01:15:14;12.07;;;7.13;;
20014;SDS011;61787;42.022;23.078;2023-03-18T01:16:18;10.80;;;6.90;;
20014;SDS011;61787;42.022;23.078;2023-03-18T01:17:21;9.83;;;7.13;;
20014;SDS011;61787;42.022;23.078;2023-03-18T01:18:22;12.40;;;7.30;;
20014;SDS011;61787;42.022;23.078;2023-03-18T01:19:24;11.30;;;7.50;;
20014;SDS011;61787;42.022;23.078;2023-03-18T01:20:26;11.30;;;7.20;;
20014;SDS011;61787;42.022;23.078;2023-03-18T01:21:29;11.40;;;7.23;;
20014;SDS011;61787;42.022;23.078;2023-03-18T01:22:31;11.63;;;6.93;;
20014;SDS011;61787;42.022;23.078;2023-03-18T01:23:33;11.13;;;7.23;;
20014;SDS011;61787;42.022;23.078;2023-03-18T01:24:35;9.60;;;7.03;;
20014;SDS011;61787;42.022;23.078;2023-03-18T01:25:37;12.57;;;7.07;;
20014;SDS011;61787;42.022;23.078;2023-03-18T01:26:38;9.57;;;7.53;;
20014;SDS011;61787;42.022;23.078;2023-03-18T01:27:40;12.47;;;8.03;;
20014;SDS011;61787;42.022;23.078;2023-03-18T01:28:42;12.27;;;6.93;;
20014;SDS011;61787;42.022;23.078;2023-03-18T01:29:44;13.73;;;7.13;;
20014;SDS011;61787;42.022;23.078;2023-03-18T01:30:47;10.27;;;7.43;;
20014;SDS011;61787;42.022;23.078;2023-03-18T01:31:49;10.30;;;7.07;;
20014;SDS011;61787;42.022;23.078;2023-03-18T01:32:51;11.93;;;7.60;;
20014;SDS011;61787;42.022;23.078;2023-03-18T01:33:54;11.30;;;7.07;;
20014;SDS011;61787;42.022;23.078;2023-03-18T01:34:56;10.43;;;7.80;;
20014;SDS011;61787;42.022;23.078;2023-03-18T01:35:58;10.43;;;7.10;;
20014;SDS011;61787;42.022;23.078;2023-03-18T01:37:02;10.00;;;7.30;;
20014;SDS011;61787;42.022;23.078;2023-03-18T01:38:04;11.80;;;7.30;;
20014;SDS011;61787;42.022;23.078;2023-03-18T01:39:06;10.57;;;7.13;;
20014;SDS011;61787;42.022;23.078;2023-03-18T01:40:09;14.20;;;8.10;;
20014;SDS011;61787;42.022;23.078;2023-03-18T01:41:12;11.83;;;7.43;;
20014;SDS011;61787;42.022;23.078;2023-03-18T01:42:13;12.27;;;8.30;;
20014;SDS011;61787;42.022;23.078;2023-03-18T01:43:19;12.93;;;7.07;;
20014;SDS011;61787;42.022;23.078;2023-03-18T01:44:26;11.00;;;7.77;;
20014;SDS011;61787;42.022;23.078;2023-03-18T01:45:28;11.00;;;7.00;;
20014;SDS011;61787;42.022;23.078;2023-03-18T01:46:38;13.20;;;7.60;;
20014;SDS011;61787;42.022;23.078;2023-03-18T01:47:41;12.07;;;7.67;;
20014;SDS011;61787;42.022;23.078;2023-03-18T01:48:44;10.17;;;7.20;;
20014;SDS011;61787;42.022;23.078;2023-03-18T01:49:47;12.53;;;8.20;;
20014;SDS011;61787;42.022;23.078;2023-03-18T01:50:52;12.40;;;8.33;;
20014;SDS011;61787;42.022;23.078;2023-03-18T01:52:00;12.97;;;8.17;;
20014;SDS011;61787;42.022;23.078;2023-03-18T01:53:04;11.97;;;8.30;;
20014;SDS011;61787;42.022;23.078;2023-03-18T01:54:09;14.43;;;8.13;;
20014;SDS011;61787;42.022;23.078;2023-03-18T01:55:17;12.97;;;8.20;;
20014;SDS011;61787;42.022;23.078;2023-03-18T01:56:21;11.07;;;7.30;;
20014;SDS011;61787;42.022;23.078;2023-03-18T01:57:22;11.17;;;7.47;;
20014;SDS011;61787;42.022;23.078;2023-03-18T01:58:26;12.57;;;8.10;;
20014;SDS011;61787;42.022;23.078;2023-03-18T01:59:30;15.00;;;8.17;;
20014;SDS011;61787;42.022;23.078;2023-03-18T02:00:35;9.93;;;7.40;;
20014;SDS011;61787;42.022;23.078;2023-03-18T02:01:50;11.93;;;7.97;;
20014;SDS011;61787;42.022;23.078;2023-03-18T02:02:56;11.33;;;7.87;;
20014;SDS011;61787;42.022;23.078;2023-03-18T02:03:58;10.13;;;7.57;;
20014;SDS011;61787;42.022;23.078;2023-03-18T02:05:03;11.80;;;7.70;;
20014;SDS011;61787;42.022;23.078;2023-03-18T02:06:06;10.47;;;7.53;;
20014;SDS011;61787;42.022;23.078;2023-03-18T02:07:17;9.60;;;7.30;;
20014;SDS011;61787;42.022;23.078;2023-03-18T02:08:21;10.70;;;7.73;;
20014;SDS011;61787;42.022;23.078;2023-03-18T02:09:23;10.00;;;7.30;;
20014;SDS011;61787;42.022;23.078;2023-03-18T02:10:26;11.10;;;8.23;;
20014;SDS011;61787;42.022;23.078;2023-03-18T02:11:31;9.53;;;7.17;;
20014;SDS011;61787;42.022;23.078;2023-03-18T02:12:37;10.90;;;7.20;;
20014;SDS011;61787;42.022;23.078;2023-03-18T02:13:42;11.50;;;7.73;;
20014;SDS011;61787;42.022;23.078;2023-03-18T02:14:46;10.87;;;8.17;;
20014;SDS011;61787;42.022;23.078;2023-03-18T02:15:51;10.23;;;8.13;;
20014;SDS011;61787;42.022;23.078;2023-03-18T02:17:02;11.67;;;8.10;;
20014;SDS011;61787;42.022;23.078;2023-03-18T02:18:15;11.47;;;8.17;;
20014;SDS011;61787;42.022;23.078;2023-03-18T02:19:28;12.10;;;8.47;;
20014;SDS011;61787;42.022;23.078;2023-03-18T02:21:04;14.83;;;8.63;;
20014;SDS011;61787;42.022;23.078;2023-03-18T02:23:57;13.30;;;9.00;;
20014;SDS011;61787;42.022;23.078;2023-03-18T02:26:26;13.67;;;8.23;;
20014;SDS011;61787;42.022;23.078;2023-03-18T02:27:50;12.83;;;8.80;;
20014;SDS011;61787;42.022;23.078;2023-03-18T02:28:55;11.53;;;8.23;;
20014;SDS011;61787;42.022;23.078;2023-03-18T02:30:05;12.20;;;8.50;;
20014;SDS011;61787;42.022;23.078;2023-03-18T02:31:12;11.93;;;8.43;;
20014;SDS011;61787;42.022;23.078;2023-03-18T02:32:16;11.60;;;8.50;;
20014;SDS011;61787;42.022;23.078;2023-03-18T02:33:21;11.67;;;9.13;;
20014;SDS011;61787;42.022;23.078;2023-03-18T02:34:26;12.73;;;8.60;;
20014;SDS011;61787;42.022;23.078;2023-03-18T02:35:29;10.10;;;8.13;;
20014;SDS011;61787;42.022;23.078;2023-03-18T02:36:32;14.27;;;8.70;;
20014;SDS011;61787;42.022;23.078;2023-03-18T02:37:36;11.37;;;8.07;;
20014;SDS011;61787;42.022;23.078;2023-03-18T02:38:41;13.17;;;8.13;;
20014;SDS011;61787;42.022;23.078;2023-03-18T02:39:44;14.77;;;9.00;;
20014;SDS011;61787;42.022;23.078;2023-03-18T02:40:45;13.23;;;9.10;;
20014;SDS011;61787;42.022;23.078;2023-03-18T02:41:47;14.07;;;8.67;;
20014;SDS011;61787;42.022;23.078;2023-03-18T02:42:49;12.27;;;8.37;;
20014;SDS011;61787;42.022;23.078;2023-03-18T02:43:51;16.03;;;8.50;;
20014;SDS011;61787;42.022;23.078;2023-03-18T02:44:53;15.67;;;8.67;;
20014;SDS011;61787;42.022;23.078;2023-03-18T02:47:08;13.90;;;8.87;;
20014;SDS011;61787;42.022;23.078;2023-03-18T02:48:14;13.97;;;8.33;;
20014;SDS011;61787;42.022;23.078;2023-03-18T02:49:19;16.47;;;8.83;;
20014;SDS011;61787;42.022;23.078;2023-03-18T02:50:21;14.10;;;8.33;;
20014;SDS011;61787;42.022;23.078;2023-03-18T02:51:24;13.10;;;8.03;;
20014;SDS011;61787;42.022;23.078;2023-03-18T02:52:27;16.23;;;8.93;;
20014;SDS011;61787;42.022;23.078;2023-03-18T02:53:28;14.10;;;8.60;;
20014;SDS011;61787;42.022;23.078;2023-03-18T02:54:30;15.43;;;9.33;;
20014;SDS011;61787;42.022;23.078;2023-03-18T02:55:33;12.37;;;8.20;;
20014;SDS011;61787;42.022;23.078;2023-03-18T02:56:35;14.43;;;8.63;;
20014;SDS011;61787;42.022;23.078;2023-03-18T02:57:38;13.70;;;8.57;;
20014;SDS011;61787;42.022;23.078;2023-03-18T02:58:39;15.70;;;9.07;;
20014;SDS011;61787;42.022;23.078;2023-03-18T02:59:41;12.57;;;8.87;;
20014;SDS011;61787;42.022;23.078;2023-03-18T03:00:43;14.27;;;8.97;;
20014;SDS011;61787;42.022;23.078;2023-03-18T03:01:46;13.00;;;8.20;;
20014;SDS011;61787;42.022;23.078;2023-03-18T03:02:49;13.33;;;8.40;;
20014;SDS011;61787;42.022;23.078;2023-03-18T03:03:51;11.43;;;8.10;;
20014;SDS011;61787;42.022;23.078;2023-03-18T03:04:52;12.97;;;8.10;;
20014;SDS011;61787;42.022;23.078;2023-03-18T03:05:54;15.50;;;8.37;;
20014;SDS011;61787;42.022;23.078;2023-03-18T03:06:57;11.70;;;7.57;;
20014;SDS011;61787;42.022;23.078;2023-03-18T03:08:01;12.03;;;7.17;;
20014;SDS011;61787;42.022;23.078;2023-03-18T03:09:03;13.70;;;7.13;;
20014;SDS011;61787;42.022;23.078;2023-03-18T03:10:07;9.67;;;7.13;;
20014;SDS011;61787;42.022;23.078;2023-03-18T03:11:09;16.37;;;7.37;;
20014;SDS011;61787;42.022;23.078;2023-03-18T03:12:11;13.53;;;7.57;;
20014;SDS011;61787;42.022;23.078;2023-03-18T03:13:13;11.77;;;7.47;;
20014;SDS011;61787;42.022;23.078;2023-03-18T03:14:15;14.07;;;7.63;;
20014;SDS011;61787;42.022;23.078;2023-03-18T03:15:17;13.10;;;6.90;;
20014;SDS011;61787;42.022;23.078;2023-03-18T03:16:19;12.03;;;7.53;;
20014;SDS011;61787;42.022;23.078;2023-03-18T03:17:21;11.67;;;7.60;;
20014;SDS011;61787;42.022;23.078;2023-03-18T03:18:23;12.37;;;7.23;;
20014;SDS011;61787;42.022;23.078;2023-03-18T03:19:24;12.77;;;7.27;;
20014;SDS011;61787;42.022;23.078;2023-03-18T03:20:26;12.87;;;7.53;;
20014;SDS011;61787;42.022;23.078;2023-03-18T03:21:28;14.27;;;8.40;;
20014;SDS011;61787;42.022;23.078;2023-03-18T03:22:31;12.37;;;7.70;;
20014;SDS011;61787;42.022;23.078;2023-03-18T03:23:33;15.60;;;7.90;;
20014;SDS011;61787;42.022;23.078;2023-03-18T03:24:35;17.50;;;8.13;;
20014;SDS011;61787;42.022;23.078;2023-03-18T03:25:37;11.87;;;7.60;;
20014;SDS011;61787;42.022;23.078;2023-03-18T03:26:40;14.90;;;8.20;;
20014;SDS011;61787;42.022;23.078;2023-03-18T03:27:41;12.40;;;7.67;;
20014;SDS011;61787;42.022;23.078;2023-03-18T03:28:43;13.30;;;7.93;;
20014;SDS011;61787;42.022;23.078;2023-03-18T03:29:46;14.07;;;8.03;;
20014;SDS011;61787;42.022;23.078;2023-03-18T03:30:47;13.57;;;7.40;;
20014;SDS011;61787;42.022;23.078;2023-03-18T03:31:49;12.23;;;7.57;;
20014;SDS011;61787;42.022;23.078;2023-03-18T03:32:51;11.83;;;7.57;;
20014;SDS011;61787;42.022;23.078;2023-03-18T03:33:53;16.27;;;7.33;;
20014;SDS011;61787;42.022;23.078;2023-03-18T03:34:55;13.40;;;7.73;;
20014;SDS011;61787;42.022;23.078;2023-03-18T03:35:56;15.27;;;7.93;;
20014;SDS011;61787;42.022;23.078;2023-03-18T03:36:58;13.00;;;7.77;;
20014;SDS011;61787;42.022;23.078;2023-03-18T03:38:00;12.73;;;8.77;;
20014;SDS011;61787;42.022;23.078;2023-03-18T03:39:02;12.50;;;7.97;;
20014;SDS011;61787;42.022;23.078;2023-03-18T03:40:04;10.93;;;7.07;;
20014;SDS011;61787;42.022;23.078;2023-03-18T03:41:06;13.07;;;7.77;;
20014;SDS011;61787;42.022;23.078;2023-03-18T03:42:10;9.10;;;7.00;;
20014;SDS011;61787;42.022;23.078;2023-03-18T03:43:12;11.03;;;6.83;;
20014;SDS011;61787;42.022;23.078;2023-03-18T03:44:15;12.93;;;7.53;;
20014;SDS011;61787;42.022;23.078;2023-03-18T03:45:17;12.10;;;7.60;;
20014;SDS011;61787;42.022;23.078;2023-03-18T03:46:20;12.53;;;7.70;;
20014;SDS011;61787;42.022;23.078;2023-03-18T03:47:22;10.67;;;7.17;;
20014;SDS011;61787;42.022;23.078;2023-03-18T03:48:23;14.43;;;7.33;;
20014;SDS011;61787;42.022;23.078;2023-03-18T03:49:25;12.27;;;7.23;;
20014;SDS011;61787;42.022;23.078;2023-03-18T03:50:27;9.77;;;7.10;;
20014;SDS011;61787;42.022;23.078;2023-03-18T03:51:29;11.23;;;7.63;;
20014;SDS011;61787;42.022;23.078;2023-03-18T03:52:31;13.93;;;7.67;;
20014;SDS011;61787;42.022;23.078;2023-03-18T03:53:33;11.00;;;7.57;;
20014;SDS011;61787;42.022;23.078;2023-03-18T03:54:36;10.60;;;7.50;;
20014;SDS011;61787;42.022;23.078;2023-03-18T03:55:38;10.13;;;7.60;;
20014;SDS011;61787;42.022;23.078;2023-03-18T03:56:40;9.43;;;7.20;;
20014;SDS011;61787;42.022;23.078;2023-03-18T03:57:42;15.27;;;7.83;;
20014;SDS011;61787;42.022;23.078;2023-03-18T03:58:45;15.00;;;7.73;;
20014;SDS011;61787;42.022;23.078;2023-03-18T03:59:46;14.73;;;7.97;;
20014;SDS011;61787;42.022;23.078;2023-03-18T04:00:48;16.40;;;8.77;;
20014;SDS011;61787;42.022;23.078;2023-03-18T04:01:50;12.37;;;7.87;;
20014;SDS011;61787;42.022;23.078;2023-03-18T04:02:52;13.00;;;8.40;;
20014;SDS011;61787;42.022;23.078;2023-03-18T04:03:54;14.10;;;8.30;;
20014;SDS011;61787;42.022;23.078;2023-03-18T04:04:56;12.93;;;8.73;;
20014;SDS011;61787;42.022;23.078;2023-03-18T04:05:58;12.37;;;8.57;;
20014;SDS011;61787;42.022;23.078;2023-03-18T04:06:59;14.77;;;8.43;;
20014;SDS011;61787;42.022;23.078;2023-03-18T04:08:01;14.50;;;8.10;;
20014;SDS011;61787;42.022;23.078;2023-03-18T04:09:03;16.47;;;8.37;;
20014;SDS011;61787;42.022;23.078;2023-03-18T04:10:05;12.50;;;7.80;;
20014;SDS011;61787;42.022;23.078;2023-03-18T04:11:09;12.33;;;8.00;;
20014;SDS011;61787;42.022;23.078;2023-03-18T04:12:11;11.90;;;8.27;;
20014;SDS011;61787;42.022;23.078;2023-03-18T04:13:13;14.30;;;8.37;;
20014;SDS011;61787;42.022;23.078;2023-03-18T04:14:15;12.57;;;7.90;;
20014;SDS011;61787;42.022;23.078;2023-03-18T04:15:18;13.83;;;7.83;;
20014;SDS011;61787;42.022;23.078;2023-03-18T04:16:22;13.00;;;8.00;;
20014;SDS011;61787;42.022;23.078;2023-03-18T04:17:23;13.13;;;8.10;;
20014;SDS011;61787;42.022;23.078;2023-03-18T04:18:25;13.87;;;8.40;;
20014;SDS011;61787;42.022;23.078;2023-03-18T04:19:27;10.73;;;8.10;;
20014;SDS011;61787;42.022;23.078;2023-03-18T04:20:29;11.83;;;7.63;;
20014;SDS011;61787;42.022;23.078;2023-03-18T04:21:31;11.20;;;7.70;;
20014;SDS011;61787;42.022;23.078;2023-03-18T04:22:33;9.93;;;7.10;;
20014;SDS011;61787;42.022;23.078;2023-03-18T04:23:35;11.37;;;8.27;;
20014;SDS011;61787;42.022;23.078;2023-03-18T04:24:36;11.50;;;7.27;;
20014;SDS011;61787;42.022;23.078;2023-03-18T04:25:38;11.97;;;7.63;;
20014;SDS011;61787;42.022;23.078;2023-03-18T04:26:40;10.93;;;7.63;;
20014;SDS011;61787;42.022;23.078;2023-03-18T04:27:41;12.37;;;7.70;;
20014;SDS011;61787;42.022;23.078;2023-03-18T04:28:43;13.67;;;7.90;;
20014;SDS011;61787;42.022;23.078;2023-03-18T04:29:45;13.10;;;7.83;;
20014;SDS011;61787;42.022;23.078;2023-03-18T04:30:47;11.37;;;7.17;;
20014;SDS011;61787;42.022;23.078;2023-03-18T04:31:49;11.13;;;7.97;;
20014;SDS011;61787;42.022;23.078;2023-03-18T04:32:51;11.37;;;7.37;;
20014;SDS011;61787;42.022;23.078;2023-03-18T04:33:55;10.60;;;7.03;;
20014;SDS011;61787;42.022;23.078;2023-03-18T04:34:57;12.43;;;7.57;;
20014;SDS011;61787;42.022;23.078;2023-03-18T04:35:59;13.67;;;7.13;;
20014;SDS011;61787;42.022;23.078;2023-03-18T04:37:01;14.00;;;7.20;;
20014;SDS011;61787;42.022;23.078;2023-03-18T04:38:04;12.67;;;7.97;;
20014;SDS011;61787;42.022;23.078;2023-03-18T04:39:06;9.83;;;6.60;;
20014;SDS011;61787;42.022;23.078;2023-03-18T04:40:10;11.17;;;7.20;;
20014;SDS011;61787;42.022;23.078;2023-03-18T04:41:12;9.07;;;7.10;;
20014;SDS011;61787;42.022;23.078;2023-03-18T04:42:14;12.27;;;7.30;;
20014;SDS011;61787;42.022;23.078;2023-03-18T04:43:16;11.40;;;6.57;;
20014;SDS011;61787;42.022;23.078;2023-03-18T04:44:18;12.43;;;7.70;;
20014;SDS011;61787;42.022;23.078;2023-03-18T04:45:19;10.43;;;7.00;;
20014;SDS011;61787;42.022;23.078;2023-03-18T04:46:21;13.43;;;6.93;;
20014;SDS011;61787;42.022;23.078;2023-03-18T04:47:23;14.27;;;7.27;;
20014;SDS011;61787;42.022;23.078;2023-03-18T04:48:24;10.87;;;6.93;;
20014;SDS011;61787;42.022;23.078;2023-03-18T04:49:27;9.97;;;6.70;;
20014;SDS011;61787;42.022;23.078;2023-03-18T04:50:29;15.10;;;7.37;;
20014;SDS011;61787;42.022;23.078;2023-03-18T04:51:31;14.50;;;7.40;;
20014;SDS011;61787;42.022;23.078;2023-03-18T04:52:32;12.40;;;7.37;;
20014;SDS011;61787;42.022;23.078;2023-03-18T04:53:35;12.27;;;7.13;;
20014;SDS011;61787;42.022;23.078;2023-03-18T04:54:37;12.07;;;7.23;;
20014;SDS011;61787;42.022;23.078;2023-03-18T04:55:40;15.93;;;7.37;;
20014;SDS011;61787;42.022;23.078;2023-03-18T04:56:41;13.83;;;7.37;;
20014;SDS011;61787;42.022;23.078;2023-03-18T04:57:43;10.23;;;7.00;;
20014;SDS011;61787;42.022;23.078;2023-03-18T04:58:46;12.23;;;7.40;;
20014;SDS011;61787;42.022;23.078;2023-03-18T04:59:47;13.80;;;7.27;;
20014;SDS011;61787;42.022;23.078;2023-03-18T05:00:49;12.30;;;7.53;;
20014;SDS011;61787;42.022;23.078;2023-03-18T05:01:50;10.90;;;6.90;;
20014;SDS011;61787;42.022;23.078;2023-03-18T05:02:52;10.90;;;7.30;;
20014;SDS011;61787;42.022;23.078;2023-03-18T05:03:54;10.20;;;7.00;;
20014;SDS011;61787;42.022;23.078;2023-03-18T05:04:56;13.23;;;7.27;;
20014;SDS011;61787;42.022;23.078;2023-03-18T05:05:58;12.87;;;7.93;;
20014;SDS011;61787;42.022;23.078;2023-03-18T05:06:59;10.50;;;7.50;;
20014;SDS011;61787;42.022;23.078;2023-03-18T05:08:01;12.93;;;7.30;;
20014;SDS011;61787;42.022;23.078;2023-03-18T05:09:03;13.40;;;7.60;;
20014;SDS011;61787;42.022;23.078;2023-03-18T05:10:05;11.37;;;7.60;;
20014;SDS011;61787;42.022;23.078;2023-03-18T05:11:08;14.10;;;8.20;;
20014;SDS011;61787;42.022;23.078;2023-03-18T05:12:10;11.70;;;7.57;;
20014;SDS011;61787;42.022;23.078;2023-03-18T05:13:13;13.80;;;7.47;;
20014;SDS011;61787;42.022;23.078;2023-03-18T05:14:16;11.33;;;7.77;;
20014;SDS011;61787;42.022;23.078;2023-03-18T05:15:18;11.13;;;7.67;;
20014;SDS011;61787;42.022;23.078;2023-03-18T05:16:19;13.00;;;7.50;;
20014;SDS011;61787;42.022;23.078;2023-03-18T05:17:21;14.70;;;7.97;;
20014;SDS011;61787;42.022;23.078;2023-03-18T05:18:22;10.70;;;7.73;;
20014;SDS011;61787;42.022;23.078;2023-03-18T05:19:24;12.23;;;7.97;;
20014;SDS011;61787;42.022;23.078;2023-03-18T05:20:26;12.63;;;7.77;;
20014;SDS011;61787;42.022;23.078;2023-03-18T05:21:28;12.93;;;8.10;;
20014;SDS011;61787;42.022;23.078;2023-03-18T05:22:30;13.50;;;7.97;;
20014;SDS011;61787;42.022;23.078;2023-03-18T05:23:36;15.30;;;9.00;;
20014;SDS011;61787;42.022;23.078;2023-03-18T05:24:39;11.47;;;8.10;;
20014;SDS011;61787;42.022;23.078;2023-03-18T05:25:41;13.80;;;8.57;;
20014;SDS011;61787;42.022;23.078;2023-03-18T05:26:43;13.60;;;8.43;;
20014;SDS011;61787;42.022;23.078;2023-03-18T05:27:45;12.83;;;8.47;;
20014;SDS011;61787;42.022;23.078;2023-03-18T05:28:47;13.17;;;8.43;;
20014;SDS011;61787;42.022;23.078;2023-03-18T05:29:49;11.03;;;8.57;;
20014;SDS011;61787;42.022;23.078;2023-03-18T05:30:50;11.60;;;8.87;;
20014;SDS011;61787;42.022;23.078;2023-03-18T05:31:53;12.80;;;8.57;;
20014;SDS011;61787;42.022;23.078;2023-03-18T05:32:54;14.60;;;8.80;;
20014;SDS011;61787;42.022;23.078;2023-03-18T05:33:56;11.20;;;8.50;;
20014;SDS011;61787;42.022;23.078;2023-03-18T05:34:58;11.73;;;8.50;;
20014;SDS011;61787;42.022;23.078;2023-03-18T05:35:59;11.17;;;8.00;;
20014;SDS011;61787;42.022;23.078;2023-03-18T05:37:06;12.23;;;8.80;;
20014;SDS011;61787;42.022;23.078;2023-03-18T05:38:09;11.63;;;9.03;;
20014;SDS011;61787;42.022;23.078;2023-03-18T05:39:10;14.00;;;9.07;;
20014;SDS011;61787;42.022;23.078;2023-03-18T05:40:12;11.07;;;8.33;;
20014;SDS011;61787;42.022;23.078;2023-03-18T05:41:14;10.90;;;8.30;;
20014;SDS011;61787;42.022;23.078;2023-03-18T05:42:16;11.70;;;8.63;;
20014;SDS011;61787;42.022;23.078;2023-03-18T05:43:18;13.53;;;8.93;;
20014;SDS011;61787;42.022;23.078;2023-03-18T05:44:20;13.43;;;9.03;;
20014;SDS011;61787;42.022;23.078;2023-03-18T05:45:21;11.53;;;8.30;;
20014;SDS011;61787;42.022;23.078;2023-03-18T05:46:24;13.30;;;8.53;;
20014;SDS011;61787;42.022;23.078;2023-03-18T05:47:27;11.70;;;8.70;;
20014;SDS011;61787;42.022;23.078;2023-03-18T05:48:28;12.40;;;8.17;;
20014;SDS011;61787;42.022;23.078;2023-03-18T05:49:30;13.90;;;9.17;;
20014;SDS011;61787;42.022;23.078;2023-03-18T05:50:33;11.50;;;8.17;;
20014;SDS011;61787;42.022;23.078;2023-03-18T05:51:37;12.90;;;8.50;;
20014;SDS011;61787;42.022;23.078;2023-03-18T05:52:39;11.00;;;8.63;;
20014;SDS011;61787;42.022;23.078;2023-03-18T05:53:41;11.93;;;9.07;;
20014;SDS011;61787;42.022;23.078;2023-03-18T05:54:42;15.93;;;8.93;;
20014;SDS011;61787;42.022;23.078;2023-03-18T05:55:44;11.87;;;8.67;;
20014;SDS011;61787;42.022;23.078;2023-03-18T05:56:46;11.47;;;8.63;;
20014;SDS011;61787;42.022;23.078;2023-03-18T05:57:48;12.23;;;9.23;;
20014;SDS011;61787;42.022;23.078;2023-03-18T05:58:50;12.10;;;8.53;;
20014;SDS011;61787;42.022;23.078;2023-03-18T05:59:52;11.40;;;9.00;;
20014;SDS011;61787;42.022;23.078;2023-03-18T06:00:53;11.93;;;8.80;;
20014;SDS011;61787;42.022;23.078;2023-03-18T06:01:56;11.30;;;8.57;;
20014;SDS011;61787;42.022;23.078;2023-03-18T06:02:58;11.57;;;8.93;;
20014;SDS011;61787;42.022;23.078;2023-03-18T06:04:01;12.50;;;9.10;;
20014;SDS011;61787;42.022;23.078;2023-03-18T06:05:03;11.10;;;8.50;;
20014;SDS011;61787;42.022;23.078;2023-03-18T06:06:05;12.57;;;8.97;;
20014;SDS011;61787;42.022;23.078;2023-03-18T06:07:07;13.50;;;9.03;;
20014;SDS011;61787;42.022;23.078;2023-03-18T06:08:08;11.40;;;8.13;;
20014;SDS011;61787;42.022;23.078;2023-03-18T06:09:11;13.13;;;9.40;;
20014;SDS011;61787;42.022;23.078;2023-03-18T06:10:13;12.10;;;8.90;;
20014;SDS011;61787;42.022;23.078;2023-03-18T06:11:15;11.03;;;8.63;;
20014;SDS011;61787;42.022;23.078;2023-03-18T06:12:17;13.60;;;9.10;;
20014;SDS011;61787;42.022;23.078;2023-03-18T06:13:20;12.40;;;8.83;;